Time;durP1;ratioP1;P1;durP2;ratioP2;P2;SDS_P1;SDS_P2;PMS_P1;PMS_P2;Temp;Humidity;BMP_temperature;BMP_pressure;BME280_temperature;BME280_humidity;BME280_pressure;Samples;Min_cycle;Max_cycle;Signal;HPM_P1;HPM_P2
2024/02/02 00:01:19;;;;;;;18.53;9.33;;;4.80;99.90;;;;;;5113335;28;20539;-71
2024/02/02 00:03:44;;;;;;;19.60;10.63;;;4.90;99.90;;;;;;5112821;28;20568;-72
2024/02/02 00:06:10;;;;;;;24.93;9.87;;;4.80;99.90;;;;;;5113397;28;20238;-72
2024/02/02 00:08:35;;;;;;;15.53;9.70;;;4.90;99.90;;;;;;5113151;28;20187;-71
2024/02/02 00:11:01;;;;;;;26.93;10.47;;;4.90;99.90;;;;;;5113392;28;20207;-72
2024/02/02 00:13:27;;;;;;;22.70;10.07;;;4.90;99.90;;;;;;5112186;28;20195;-72
2024/02/02 00:15:53;;;;;;;25.90;10.20;;;4.90;99.90;;;;;;5113926;28;20222;-73
2024/02/02 00:18:19;;;;;;;24.53;10.13;;;4.90;99.90;;;;;;5114186;28;20200;-72
2024/02/02 00:20:44;;;;;;;19.10;9.67;;;4.90;99.90;;;;;;5112872;28;20161;-73
2024/02/02 00:23:10;;;;;;;23.70;10.30;;;4.90;99.90;;;;;;5112912;28;20198;-73
2024/02/02 00:25:36;;;;;;;23.07;9.83;;;4.90;99.90;;;;;;5113101;28;20192;-72
2024/02/02 00:28:02;;;;;;;23.03;10.00;;;5.00;99.90;;;;;;5112424;28;20221;-72
2024/02/02 00:30:34;;;;;;;24.83;9.33;;;5.00;99.90;;;;;;5112412;28;20691;-72
2024/02/02 00:33:01;;;;;;;23.87;9.53;;;5.00;99.90;;;;;;5112986;28;20661;-73
2024/02/02 00:35:27;;;;;;;20.50;9.30;;;5.00;99.90;;;;;;5112762;28;20211;-73
2024/02/02 00:37:53;;;;;;;18.70;8.77;;;5.00;99.90;;;;;;5112547;28;20169;-72
2024/02/02 00:40:18;;;;;;;24.10;9.47;;;5.00;99.90;;;;;;5112234;28;20161;-72
2024/02/02 00:42:44;;;;;;;17.83;7.80;;;5.00;99.90;;;;;;5112519;28;20192;-71
2024/02/02 00:45:10;;;;;;;20.07;8.73;;;5.00;99.90;;;;;;5112739;28;20176;-72
2024/02/02 00:47:35;;;;;;;18.70;8.57;;;5.00;99.90;;;;;;5112401;28;20177;-72
2024/02/02 00:50:01;;;;;;;20.20;9.27;;;5.00;99.90;;;;;;5112122;28;20173;-72
2024/02/02 00:52:27;;;;;;;24.33;8.90;;;5.00;99.90;;;;;;5111947;28;20589;-71
2024/02/02 00:54:53;;;;;;;16.10;7.93;;;5.00;99.90;;;;;;5112471;28;20574;-71
2024/02/02 00:57:18;;;;;;;19.73;9.30;;;5.00;99.90;;;;;;5111937;28;20175;-72
2024/02/02 00:59:44;;;;;;;23.33;9.20;;;5.10;99.90;;;;;;5111906;28;20197;-72
2024/02/02 01:02:09;;;;;;;22.30;9.17;;;5.10;99.90;;;;;;5112291;28;20172;-72
2024/02/02 01:04:35;;;;;;;15.33;8.90;;;5.10;99.90;;;;;;5112147;28;20528;-72
2024/02/02 01:07:01;;;;;;;22.50;8.90;;;5.20;99.90;;;;;;5112287;28;20214;-73
2024/02/02 01:09:26;;;;;;;16.30;8.47;;;5.20;99.90;;;;;;5111524;28;20677;-72
2024/02/02 01:11:53;;;;;;;13.30;8.27;;;5.20;99.90;;;;;;5112066;28;20180;-72
2024/02/02 01:14:19;;;;;;;23.53;8.10;;;5.20;99.90;;;;;;5111971;28;20811;-73
2024/02/02 01:16:45;;;;;;;14.13;8.10;;;5.10;99.90;;;;;;5112098;28;20192;-71
2024/02/02 01:19:10;;;;;;;17.13;8.27;;;5.20;99.90;;;;;;5111953;28;20239;-72
2024/02/02 01:21:36;;;;;;;16.53;8.77;;;5.10;99.90;;;;;;5111823;28;20253;-72
2024/02/02 01:24:02;;;;;;;14.60;8.13;;;5.10;99.90;;;;;;5111830;28;20672;-72
2024/02/02 01:26:28;;;;;;;22.43;9.83;;;5.10;99.90;;;;;;5111874;28;20168;-71
2024/02/02 01:28:54;;;;;;;15.90;9.37;;;5.10;99.90;;;;;;5110515;28;20188;-72
2024/02/02 01:31:19;;;;;;;23.00;8.63;;;5.10;99.90;;;;;;5111813;28;20168;-72
2024/02/02 01:33:45;;;;;;;18.90;8.00;;;5.10;99.90;;;;;;5111964;28;20741;-72
2024/02/02 01:36:10;;;;;;;20.67;8.47;;;5.10;99.90;;;;;;5112235;28;20183;-72
2024/02/02 01:38:38;;;;;;;19.97;8.60;;;5.10;99.90;;;;;;5113649;28;20643;-72
2024/02/02 01:41:04;;;;;;;17.83;8.20;;;5.20;99.90;;;;;;5112251;28;20200;-72
2024/02/02 01:43:30;;;;;;;15.10;8.23;;;5.20;99.90;;;;;;5111962;28;20189;-72
2024/02/02 01:45:56;;;;;;;17.90;7.67;;;5.20;99.90;;;;;;5111756;28;20243;-72
2024/02/02 01:48:22;;;;;;;20.53;7.90;;;5.20;99.90;;;;;;5111759;28;20200;-72
2024/02/02 01:50:47;;;;;;;19.60;8.63;;;5.20;99.90;;;;;;5111681;28;20543;-72
2024/02/02 01:53:13;;;;;;;21.47;8.83;;;5.20;99.90;;;;;;5132252;22;20221;-71
2024/02/02 01:55:38;;;;;;;18.23;7.53;;;5.20;99.90;;;;;;5092443;28;20201;-71
2024/02/02 01:58:04;;;;;;;20.30;8.97;;;5.20;99.90;;;;;;5111874;28;20177;-71
2024/02/02 02:00:30;;;;;;;18.30;8.07;;;5.20;99.90;;;;;;5110932;28;20173;-71
2024/02/02 02:02:56;;;;;;;15.60;7.83;;;5.30;99.90;;;;;;5093691;28;20672;-71
2024/02/02 02:05:21;;;;;;;18.57;8.60;;;5.30;99.90;;;;;;5092018;28;20291;-71
2024/02/02 02:07:47;;;;;;;20.20;8.27;;;5.30;99.90;;;;;;5091854;28;20161;-71
2024/02/02 02:10:13;;;;;;;13.00;7.50;;;5.30;99.90;;;;;;5092172;28;20184;-71
2024/02/02 02:12:42;;;;;;;17.07;8.50;;;5.20;99.90;;;;;;5092396;28;20219;-71
2024/02/02 02:15:10;;;;;;;20.37;8.60;;;5.20;99.90;;;;;;5091999;28;20200;-71
2024/02/02 02:17:36;;;;;;;22.20;7.77;;;5.20;99.90;;;;;;5094211;28;20181;-71
2024/02/02 02:20:04;;;;;;;22.93;8.47;;;5.20;99.90;;;;;;5092842;28;20258;-71
2024/02/02 02:22:30;;;;;;;15.00;8.40;;;5.20;99.90;;;;;;5091912;28;20366;-71
2024/02/02 02:24:55;;;;;;;14.63;7.43;;;5.20;99.90;;;;;;5090779;28;20566;-71
2024/02/02 02:27:21;;;;;;;17.40;7.70;;;5.20;99.90;;;;;;5092243;28;20165;-71
2024/02/02 02:29:47;;;;;;;14.27;7.57;;;5.30;99.90;;;;;;5091122;28;20193;-72
2024/02/02 02:32:13;;;;;;;18.63;8.00;;;5.40;99.90;;;;;;5091921;28;20314;-71
2024/02/02 02:34:38;;;;;;;14.80;7.27;;;5.50;99.90;;;;;;5091777;28;20672;-71
2024/02/02 02:37:04;;;;;;;15.20;8.20;;;5.50;99.90;;;;;;5093422;28;20661;-71
2024/02/02 02:39:29;;;;;;;20.27;8.10;;;5.70;99.90;;;;;;5094873;28;20326;-71
2024/02/02 02:41:55;;;;;;;22.73;8.30;;;5.70;99.90;;;;;;5095314;28;20169;-71
2024/02/02 02:44:20;;;;;;;18.40;8.33;;;5.70;99.90;;;;;;5093974;28;20641;-71
2024/02/02 02:46:48;;;;;;;15.93;7.57;;;5.80;99.90;;;;;;5093774;28;20182;-71
2024/02/02 02:49:13;;;;;;;18.47;7.57;;;5.80;99.90;;;;;;5095093;28;20196;-71
2024/02/02 02:51:39;;;;;;;17.20;8.47;;;5.90;99.90;;;;;;5095183;28;20642;-72
2024/02/02 02:54:04;;;;;;;15.90;7.60;;;5.80;99.90;;;;;;5095085;28;20229;-71
2024/02/02 02:56:30;;;;;;;20.97;7.93;;;5.90;99.90;;;;;;5094947;28;20634;-71
2024/02/02 02:58:56;;;;;;;14.63;7.70;;;5.90;99.90;;;;;;5095003;28;20227;-71
2024/02/02 03:01:21;;;;;;;21.17;8.10;;;6.00;99.90;;;;;;5094756;28;20196;-71
2024/02/02 03:03:47;;;;;;;19.03;8.47;;;6.00;99.90;;;;;;5094595;28;20272;-71
2024/02/02 03:06:13;;;;;;;18.03;7.93;;;6.00;99.90;;;;;;5094806;28;20257;-71
2024/02/02 03:08:38;;;;;;;17.47;7.50;;;6.00;99.90;;;;;;5094771;28;20197;-71
2024/02/02 03:11:04;;;;;;;18.43;7.23;;;6.00;99.90;;;;;;5094678;28;20193;-71
2024/02/02 03:13:29;;;;;;;16.13;7.60;;;6.10;99.90;;;;;;5094738;28;20548;-71
2024/02/02 03:15:55;;;;;;;17.07;7.43;;;6.10;99.90;;;;;;5094557;28;20185;-71
2024/02/02 03:18:21;;;;;;;15.10;7.03;;;6.10;99.90;;;;;;5093283;28;20475;-71
2024/02/02 03:20:47;;;;;;;18.33;7.60;;;6.10;99.90;;;;;;5094511;28;20608;-71
2024/02/02 03:23:12;;;;;;;17.03;6.93;;;6.10;99.90;;;;;;5094964;28;20185;-71
2024/02/02 03:25:38;;;;;;;16.40;6.97;;;6.10;99.90;;;;;;5094107;28;20177;-72
2024/02/02 03:28:04;;;;;;;19.10;7.00;;;6.20;99.90;;;;;;5094768;28;20642;-72
2024/02/02 03:30:29;;;;;;;17.23;7.17;;;6.20;99.90;;;;;;5094242;28;20182;-71
2024/02/02 03:32:55;;;;;;;18.07;6.63;;;6.20;99.90;;;;;;5094785;28;20200;-71
2024/02/02 03:35:21;;;;;;;11.97;6.60;;;6.20;99.90;;;;;;5093081;28;20207;-71
2024/02/02 03:37:46;;;;;;;18.80;7.30;;;6.30;99.90;;;;;;5094559;28;20189;-71
2024/02/02 03:40:12;;;;;;;13.07;6.70;;;6.30;99.90;;;;;;5092535;28;20205;-72
2024/02/02 03:42:38;;;;;;;15.90;7.13;;;6.30;99.90;;;;;;5094165;28;20245;-71
2024/02/02 03:45:05;;;;;;;16.07;7.40;;;6.30;99.90;;;;;;5094164;28;20173;-71
2024/02/02 03:47:31;;;;;;;13.77;6.33;;;6.30;99.90;;;;;;5094033;28;20689;-71
2024/02/02 03:49:57;;;;;;;10.00;6.70;;;6.30;99.90;;;;;;5093494;28;20252;-73
2024/02/02 03:52:23;;;;;;;14.30;6.30;;;6.30;99.90;;;;;;5094154;28;20197;-71
2024/02/02 03:54:49;;;;;;;15.80;7.37;;;6.30;99.90;;;;;;5092335;28;20213;-71
2024/02/02 03:57:14;;;;;;;16.33;7.00;;;6.30;99.90;;;;;;5094350;28;20181;-71
2024/02/02 03:59:40;;;;;;;15.63;7.60;;;6.40;99.90;;;;;;5093076;28;20209;-71
2024/02/02 04:02:06;;;;;;;15.73;7.33;;;6.30;99.90;;;;;;5093530;28;20547;-71
2024/02/02 04:04:31;;;;;;;16.50;6.70;;;6.30;99.90;;;;;;5093708;28;20301;-71
2024/02/02 04:06:57;;;;;;;22.33;7.43;;;6.30;99.90;;;;;;5094241;28;20174;-71
2024/02/02 04:09:23;;;;;;;14.17;7.47;;;6.30;1.00;;;;;;5093212;28;20209;-71
2024/02/02 04:11:48;;;;;;;16.13;7.80;;;6.30;1.00;;;;;;5093037;28;20673;-71
2024/02/02 04:14:14;;;;;;;17.17;8.50;;;6.30;99.90;;;;;;5093368;28;20193;-71
2024/02/02 04:16:39;;;;;;;17.80;8.43;;;6.20;99.90;;;;;;5092485;28;20267;-71
2024/02/02 04:19:05;;;;;;;18.83;8.40;;;6.20;99.90;;;;;;5091528;28;20232;-71
2024/02/02 04:21:31;;;;;;;23.07;8.13;;;6.30;99.90;;;;;;5092560;28;20206;-72
2024/02/02 04:23:57;;;;;;;20.13;8.83;;;6.20;99.90;;;;;;5091581;28;20284;-71
2024/02/02 04:26:22;;;;;;;26.30;7.40;;;6.20;99.90;;;;;;5092671;28;20198;-72
2024/02/02 04:28:48;;;;;;;14.77;8.57;;;6.20;99.90;;;;;;5092167;28;20622;-71
2024/02/02 04:31:13;;;;;;;18.27;7.53;;;6.20;99.90;;;;;;5092381;28;20184;-71
2024/02/02 04:33:39;;;;;;;19.90;7.70;;;6.20;70.80;;;;;;5092719;28;20197;-72
2024/02/02 04:36:05;;;;;;;16.33;7.90;;;6.20;14.30;;;;;;5092224;28;20672;-74
2024/02/02 04:38:30;;;;;;;13.80;7.30;;;6.20;4.80;;;;;;5092205;28;20228;-72
2024/02/02 04:40:56;;;;;;;14.27;6.70;;;6.20;13.70;;;;;;5091665;28;20173;-72
2024/02/02 04:43:22;;;;;;;17.80;7.07;;;6.20;9.10;;;;;;5092173;28;20593;-71
2024/02/02 04:45:47;;;;;;;19.03;7.77;;;6.20;1.00;;;;;;5092182;28;20174;-72
2024/02/02 04:48:14;;;;;;;16.40;7.10;;;6.10;1.00;;;;;;5092063;28;20236;-71
2024/02/02 04:50:40;;;;;;;14.80;7.80;;;6.10;13.60;;;;;;5091746;28;20196;-72
2024/02/02 04:53:06;;;;;;;28.13;7.97;;;6.00;13.50;;;;;;5092004;28;20225;-72
2024/02/02 04:55:32;;;;;;;19.87;7.83;;;6.00;21.60;;;;;;5091718;28;20173;-72
2024/02/02 04:57:58;;;;;;;17.93;7.93;;;6.00;38.00;;;;;;5092787;28;20219;-71
2024/02/02 05:00:23;;;;;;;19.00;7.97;;;5.90;81.80;;;;;;5092248;28;20223;-71
2024/02/02 05:02:49;;;;;;;26.40;7.97;;;5.90;99.90;;;;;;5092947;28;20366;-72
2024/02/02 05:05:14;;;;;;;23.43;8.33;;;5.90;94.40;;;;;;5093053;28;20244;-71
2024/02/02 05:07:40;;;;;;;18.50;7.93;;;5.90;96.70;;;;;;5092440;28;20541;-71
2024/02/02 05:10:06;;;;;;;22.10;8.03;;;5.90;99.90;;;;;;5092607;28;20261;-71
2024/02/02 05:12:35;;;;;;;23.83;9.30;;;5.90;99.90;;;;;;5091716;28;20173;-71
2024/02/02 05:15:01;;;;;;;14.30;8.20;;;5.90;99.90;;;;;;5092294;28;20291;-73
2024/02/02 05:17:27;;;;;;;22.90;9.17;;;5.90;99.90;;;;;;5091536;28;20252;-73
2024/02/02 05:19:53;;;;;;;22.07;8.63;;;5.90;99.90;;;;;;5091270;28;20292;-73
2024/02/02 05:22:18;;;;;;;20.63;8.00;;;5.90;99.90;;;;;;5091441;28;20162;-71
2024/02/02 05:24:45;;;;;;;14.67;8.00;;;5.90;99.90;;;;;;5091509;28;20197;-73
2024/02/02 05:27:12;;;;;;;24.27;8.47;;;5.90;99.90;;;;;;5092826;28;20684;-71
2024/02/02 05:29:38;;;;;;;19.43;8.10;;;6.00;99.90;;;;;;5091338;28;20178;-72
2024/02/02 05:32:05;;;;;;;20.60;7.57;;;6.00;99.90;;;;;;5091731;28;20177;-71
2024/02/02 05:34:30;;;;;;;23.23;8.20;;;6.00;99.90;;;;;;5090780;28;20212;-72
2024/02/02 05:36:56;;;;;;;18.73;7.97;;;6.00;99.90;;;;;;5092069;28;20252;-71
2024/02/02 05:39:21;;;;;;;22.87;7.63;;;6.00;82.70;;;;;;5091478;28;20197;-72
2024/02/02 05:41:47;;;;;;;25.00;7.63;;;6.00;27.40;;;;;;5091944;28;20668;-73
2024/02/02 05:44:12;;;;;;;16.73;7.40;;;6.00;12.00;;;;;;5090048;28;20197;-73
2024/02/02 05:46:38;;;;;;;14.10;7.40;;;6.00;1.00;;;;;;5091196;28;20973;-73
2024/02/02 05:49:03;;;;;;;18.10;7.53;;;6.00;1.00;;;;;;5091305;28;20180;-72
2024/02/02 05:51:29;;;;;;;17.40;7.70;;;6.00;2.60;;;;;;5091858;28;20185;-73
2024/02/02 05:53:55;;;;;;;21.77;7.53;;;6.00;1.00;;;;;;5092418;28;20665;-73
2024/02/02 05:56:20;;;;;;;11.40;6.33;;;6.00;1.00;;;;;;5092233;28;20170;-73
2024/02/02 05:58:46;;;;;;;19.60;7.83;;;6.00;4.80;;;;;;5092530;28;20283;-73
2024/02/02 06:01:12;;;;;;;22.63;7.80;;;6.00;12.10;;;;;;5093527;28;20169;-72
2024/02/02 06:03:37;;;;;;;19.13;8.70;;;6.10;1.00;;;;;;5092933;28;20197;-73
2024/02/02 06:06:03;;;;;;;17.97;6.97;;;6.00;1.00;;;;;;5093881;28;20633;-73
2024/02/02 06:08:29;;;;;;;15.37;7.70;;;6.00;1.00;;;;;;5093732;28;20686;-73
2024/02/02 06:10:54;;;;;;;18.07;6.87;;;6.00;1.00;;;;;;5092473;28;20178;-73
2024/02/02 06:13:20;;;;;;;12.60;7.17;;;6.00;1.00;;;;;;5094506;28;20255;-73
2024/02/02 06:15:46;;;;;;;10.50;6.27;;;6.00;1.00;;;;;;5094556;28;20178;-73
2024/02/02 06:18:11;;;;;;;16.60;7.53;;;6.00;1.00;;;;;;5094352;28;20185;-72
2024/02/02 06:20:37;;;;;;;22.43;6.70;;;6.00;1.00;;;;;;5094240;28;20173;-73
2024/02/02 06:23:03;;;;;;;14.67;7.47;;;5.90;1.00;;;;;;5094921;28;20658;-73
2024/02/02 06:25:28;;;;;;;20.17;7.83;;;5.90;1.00;;;;;;5094425;28;20170;-73
2024/02/02 06:27:54;;;;;;;12.17;6.47;;;5.90;1.00;;;;;;5094685;28;20161;-73
2024/02/02 06:30:19;;;;;;;13.13;6.47;;;5.90;1.00;;;;;;5094158;28;20181;-72
2024/02/02 06:32:49;;;;;;;15.57;6.53;;;5.90;1.00;;;;;;5094106;28;20181;-73
2024/02/02 06:35:17;;;;;;;18.47;6.80;;;5.90;1.00;;;;;;5093918;28;20182;-73
2024/02/02 06:37:43;;;;;;;14.90;6.77;;;5.90;1.00;;;;;;5094265;28;20223;-73
2024/02/02 06:40:09;;;;;;;20.97;7.07;;;5.90;1.00;;;;;;5093949;28;20518;-73
2024/02/02 06:42:35;;;;;;;12.67;6.37;;;5.90;1.00;;;;;;5094220;28;20192;-73
2024/02/02 06:45:00;;;;;;;19.53;6.80;;;5.90;1.00;;;;;;5094202;28;20190;-73
2024/02/02 06:47:26;;;;;;;15.50;6.10;;;5.80;1.00;;;;;;5094146;28;20178;-73
2024/02/02 06:49:52;;;;;;;13.53;6.37;;;5.80;1.00;;;;;;5093553;28;20184;-72
2024/02/02 06:52:17;;;;;;;18.33;6.37;;;5.80;1.00;;;;;;5093886;28;20368;-73
2024/02/02 06:54:43;;;;;;;16.77;5.87;;;5.80;1.00;;;;;;5094047;28;20216;-73
2024/02/02 06:57:10;;;;;;;15.10;5.60;;;5.80;1.00;;;;;;5094113;28;20174;-73
2024/02/02 06:59:36;;;;;;;9.60;6.33;;;5.80;1.00;;;;;;5092806;28;20209;-72
2024/02/02 07:02:21;;;;;;;21.30;6.30;;;5.90;1.00;;;;;;5097763;28;20181;-73
2024/02/02 07:04:50;;;;;;;21.97;5.87;;;5.90;1.00;;;;;;5093372;28;20284;-73
2024/02/02 07:07:16;;;;;;;15.20;6.20;;;5.90;1.00;;;;;;5093664;28;20181;-73
2024/02/02 07:09:55;;;;;;;15.03;6.93;;;5.90;1.00;;;;;;5093341;28;20165;-71
2024/02/02 07:13:06;;;;;;;13.57;6.93;;;5.90;1.00;;;;;;5092213;28;20227;-72
2024/02/02 07:15:39;;;;;;;19.37;6.60;;;5.90;1.00;;;;;;5089628;28;20212;-72
2024/02/02 07:18:05;;;;;;;11.97;6.30;;;6.00;1.00;;;;;;5093254;28;20626;-72
2024/02/02 07:20:32;;;;;;;16.40;6.40;;;6.00;1.00;;;;;;5092636;28;20189;-71
2024/02/02 07:23:01;;;;;;;11.93;5.97;;;5.90;1.00;;;;;;5092965;28;20237;-72
2024/02/02 07:25:30;;;;;;;16.53;6.03;;;5.90;1.00;;;;;;5093179;28;20249;-71
2024/02/02 07:28:01;;;;;;;16.33;6.03;;;5.90;1.00;;;;;;5093617;28;20161;-72
2024/02/02 07:30:30;;;;;;;12.37;6.00;;;5.90;1.00;;;;;;5092538;28;20182;-72
2024/02/02 07:32:56;;;;;;;12.93;6.17;;;5.90;1.00;;;;;;5093163;28;20173;-71
2024/02/02 07:35:30;;;;;;;13.57;6.47;;;5.90;1.00;;;;;;5093180;28;20185;-71
2024/02/02 07:37:59;;;;;;;13.47;5.57;;;5.90;1.00;;;;;;5093002;28;20219;-71
2024/02/02 07:40:30;;;;;;;10.53;5.33;;;5.90;1.00;;;;;;5092426;28;20212;-72
2024/02/02 07:42:59;;;;;;;13.53;6.90;;;5.80;1.00;;;;;;5092851;28;20184;-72
2024/02/02 07:45:25;;;;;;;13.07;6.13;;;5.90;1.00;;;;;;5092586;28;20176;-71
2024/02/02 07:47:53;;;;;;;19.07;6.17;;;5.90;1.00;;;;;;5092791;28;20252;-72
2024/02/02 07:50:19;;;;;;;10.57;5.53;;;5.90;1.00;;;;;;5092086;28;20227;-72
2024/02/02 07:52:44;;;;;;;17.30;6.00;;;6.00;1.00;;;;;;5092318;28;20654;-72
2024/02/02 07:55:10;;;;;;;17.97;5.70;;;6.00;1.00;;;;;;5093022;28;20605;-71
2024/02/02 07:57:36;;;;;;;7.10;5.67;;;6.00;1.00;;;;;;5092253;28;20186;-71
2024/02/02 08:00:02;;;;;;;9.53;5.80;;;6.10;1.00;;;;;;5092071;28;20205;-72
2024/02/02 08:02:27;;;;;;;12.87;6.57;;;6.10;1.00;;;;;;5092366;28;20490;-72
2024/02/02 08:04:53;;;;;;;13.47;5.30;;;6.20;1.00;;;;;;5093093;28;20219;-72
2024/02/02 08:07:18;;;;;;;13.73;6.30;;;6.30;1.00;;;;;;5093206;28;20168;-72
2024/02/02 08:09:44;;;;;;;17.60;5.90;;;6.40;1.00;;;;;;5092011;28;20188;-72
2024/02/02 08:12:10;;;;;;;10.30;5.60;;;6.50;1.00;;;;;;5092022;28;20625;-72
2024/02/02 08:14:35;;;;;;;10.57;4.90;;;6.70;1.00;;;;;;5092066;28;20193;-72
2024/02/02 08:17:03;;;;;;;14.37;5.63;;;6.90;1.00;;;;;;5092676;28;20273;-72
2024/02/02 08:19:28;;;;;;;10.27;5.83;;;7.10;1.00;;;;;;5092173;28;20300;-72
2024/02/02 08:21:55;;;;;;;13.37;5.73;;;7.50;1.00;;;;;;5091196;28;20705;-72
2024/02/02 08:24:21;;;;;;;8.67;5.10;;;8.00;1.00;;;;;;5092552;28;20231;-73
2024/02/02 08:26:47;;;;;;;11.20;4.90;;;8.30;1.00;;;;;;5092367;28;20197;-72
2024/02/02 08:29:16;;;;;;;5.77;4.43;;;8.70;1.00;;;;;;5092394;28;20261;-73
2024/02/02 08:31:44;;;;;;;7.93;4.93;;;9.00;1.00;;;;;;5092693;28;20173;-72
2024/02/02 08:34:13;;;;;;;10.87;4.60;;;8.90;1.00;;;;;;5092266;28;20605;-72
2024/02/02 08:36:39;;;;;;;11.20;4.73;;;8.90;1.00;;;;;;5092389;28;20238;-72
2024/02/02 08:39:10;;;;;;;11.87;5.77;;;9.00;1.00;;;;;;5092046;28;20569;-71
2024/02/02 08:41:36;;;;;;;10.60;4.53;;;9.00;1.00;;;;;;5092911;28;20203;-71
2024/02/02 08:44:05;;;;;;;9.73;5.00;;;8.90;1.00;;;;;;5092686;28;20193;-70
2024/02/02 08:46:35;;;;;;;7.77;4.57;;;8.90;1.00;;;;;;5091967;28;20170;-71
2024/02/02 08:49:01;;;;;;;14.23;5.40;;;8.80;99.90;;;;;;5091233;28;20170;-70
2024/02/02 08:51:29;;;;;;;9.83;4.83;;;8.80;99.90;;;;;;5091465;28;20173;-71
2024/02/02 08:54:25;;;;;;;8.23;4.83;;;8.80;99.90;;;;;;5090980;28;20216;-71
2024/02/02 08:57:22;;;;;;;10.10;4.77;;;8.70;99.90;;;;;;5091335;28;20169;-72
2024/02/02 08:59:52;;;;;;;11.83;4.83;;;8.60;99.90;;;;;;5091012;28;20216;-71
2024/02/02 09:02:39;;;;;;;9.60;4.80;;;8.50;99.90;;;;;;5091134;28;20176;-71
2024/02/02 09:05:23;;;;;;;10.37;5.50;;;8.60;99.90;;;;;;5091056;28;20256;-72
2024/02/02 09:08:05;;;;;;;10.40;4.60;;;8.60;99.90;;;;;;5091113;28;20181;-72
2024/02/02 09:10:30;;;;;;;11.47;4.23;;;8.70;99.90;;;;;;5089671;28;20188;-72
2024/02/02 09:13:01;;;;;;;11.87;4.93;;;8.80;99.90;;;;;;5090786;28;20169;-71
2024/02/02 09:15:29;;;;;;;13.00;5.10;;;8.90;99.90;;;;;;5091636;28;20227;-70
2024/02/02 09:17:55;;;;;;;10.67;4.83;;;9.10;99.90;;;;;;5091135;28;20177;-71
2024/02/02 09:20:39;;;;;;;8.37;4.53;;;9.30;99.90;;;;;;5090667;28;20209;-71
2024/02/02 09:23:06;;;;;;;10.80;5.17;;;9.50;99.90;;;;;;5070823;28;20202;-71
2024/02/02 09:25:42;;;;;;;8.00;4.43;;;9.60;99.90;;;;;;5069422;28;20177;-71
2024/02/02 09:28:29;;;;;;;9.53;4.63;;;9.70;99.90;;;;;;5070945;28;20235;-71
2024/02/02 09:30:57;;;;;;;9.90;3.93;;;9.80;99.90;;;;;;5070551;28;20206;-72
2024/02/02 09:33:45;;;;;;;10.97;4.60;;;10.00;99.90;;;;;;5070846;28;20213;-70
2024/02/02 09:36:11;;;;;;;13.17;5.00;;;10.00;99.90;;;;;;5078865;28;20642;-72
2024/02/02 09:38:37;;;;;;;13.23;5.00;;;10.00;99.90;;;;;;5090881;28;20204;-72
2024/02/02 09:41:13;;;;;;;8.90;4.60;;;10.20;99.90;;;;;;5090587;28;20173;-72
2024/02/02 09:43:52;;;;;;;13.57;4.60;;;10.20;99.90;;;;;;5090568;28;20200;-72
2024/02/02 09:46:23;;;;;;;12.40;5.00;;;10.20;99.90;;;;;;5094230;28;20256;-73
2024/02/02 09:49:13;;;;;;;9.07;4.73;;;10.20;99.90;;;;;;5094643;28;20649;-72
2024/02/02 09:51:54;;;;;;;9.00;4.67;;;10.10;99.90;;;;;;5094968;28;20177;-72
2024/02/02 09:54:35;;;;;;;11.27;4.97;;;9.90;99.90;;;;;;5094473;28;20304;-72
2024/02/02 09:57:32;;;;;;;9.13;4.50;;;9.80;99.90;;;;;;5094106;28;20642;-72
2024/02/02 10:00:17;;;;;;;11.43;4.93;;;9.90;99.90;;;;;;5095062;28;20235;-73
2024/02/02 10:03:09;;;;;;;15.60;5.73;;;9.90;99.90;;;;;;5094586;28;20272;-70
2024/02/02 10:06:03;;;;;;;11.77;4.80;;;9.80;99.90;;;;;;5094876;28;20237;-71
2024/02/02 10:08:28;;;;;;;12.17;5.20;;;9.70;99.90;;;;;;5094517;28;20202;-72
2024/02/02 10:11:09;;;;;;;11.27;4.57;;;9.70;99.90;;;;;;5094175;28;20180;-71
2024/02/02 10:13:43;;;;;;;12.87;5.10;;;9.70;99.90;;;;;;5094461;28;20189;-71
2024/02/02 10:16:12;;;;;;;14.67;5.53;;;9.70;99.90;;;;;;5094433;28;20250;-72
2024/02/02 10:19:06;;;;;;;10.27;5.00;;;9.70;99.90;;;;;;5094257;28;20201;-72
2024/02/02 10:22:00;;;;;;;6.70;3.93;;;9.90;99.90;;;;;;5094114;28;20189;-71
2024/02/02 10:24:56;;;;;;;13.10;4.83;;;10.10;99.90;;;;;;5085874;28;20204;-71
2024/02/02 10:27:47;;;;;;;12.23;4.60;;;10.20;99.90;;;;;;5094036;28;20178;-71
2024/02/02 10:30:27;;;;;;;10.23;4.63;;;10.30;99.90;;;;;;5093694;28;20178;-71
2024/02/02 10:33:20;;;;;;;13.83;4.90;;;10.50;99.90;;;;;;5094271;28;20549;-71
2024/02/02 10:36:00;;;;;;;14.07;4.87;;;10.70;99.90;;;;;;5094341;28;20181;-71
2024/02/02 10:38:57;;;;;;;10.47;5.23;;;10.70;99.90;;;;;;5093866;28;20650;-72
2024/02/02 10:41:42;;;;;;;8.93;5.00;;;10.80;99.90;;;;;;5073580;28;20257;-72
2024/02/02 10:44:16;;;;;;;8.90;4.70;;;10.80;99.90;;;;;;5083184;28;20204;-72
2024/02/02 10:47:09;;;;;;;10.37;4.27;;;10.90;99.90;;;;;;5094106;28;20197;-72
2024/02/02 10:49:44;;;;;;;7.70;4.03;;;11.20;99.90;;;;;;5083430;28;20197;-71
2024/02/02 10:52:28;;;;;;;12.03;4.77;;;11.50;99.90;;;;;;5094072;28;20310;-72
2024/02/02 10:55:05;;;;;;;8.97;4.50;;;11.50;99.90;;;;;;5094074;28;20224;-72
2024/02/02 10:58:00;;;;;;;13.10;4.17;;;11.60;99.90;;;;;;5093164;28;20223;-72
2024/02/02 11:00:31;;;;;;;10.60;4.50;;;11.60;99.90;;;;;;5069096;28;20635;-72
2024/02/02 11:03:21;;;;;;;12.67;4.40;;;11.80;99.90;;;;;;5073496;28;20690;-72
2024/02/02 11:06:23;;;;;;;13.23;5.03;;;11.90;99.90;;;;;;5063734;28;20239;-72
2024/02/02 11:09:00;;;;;;;7.93;4.43;;;11.80;99.90;;;;;;5028508;28;20217;-73
2024/02/02 11:11:30;;;;;;;7.03;3.97;;;11.90;99.90;;;;;;5083861;28;20177;-71
2024/02/02 11:14:16;;;;;;;9.03;4.60;;;12.10;99.90;;;;;;5092959;28;20193;-71
2024/02/02 11:17:00;;;;;;;7.23;4.07;;;12.30;99.90;;;;;;5093667;28;20204;-71
2024/02/02 11:19:57;;;;;;;12.47;4.47;;;12.60;99.90;;;;;;5093103;28;20193;-70
2024/02/02 11:22:29;;;;;;;9.00;4.70;;;12.60;99.90;;;;;;5087538;28;20268;-71
2024/02/02 11:24:54;;;;;;;8.47;4.50;;;12.60;99.90;;;;;;5093459;28;20225;-70
2024/02/02 11:27:26;;;;;;;13.87;4.70;;;12.80;99.90;;;;;;5093646;28;20185;-71
2024/02/02 11:30:12;;;;;;;10.73;4.80;;;12.80;99.90;;;;;;5092810;28;20238;-70
2024/02/02 11:33:13;;;;;;;10.90;4.23;;;12.60;99.90;;;;;;5092785;28;20189;-71
2024/02/02 11:36:04;;;;;;;9.50;5.13;;;12.30;99.90;;;;;;5092901;28;20181;-71
2024/02/02 11:38:32;;;;;;;8.90;5.20;;;12.00;99.90;;;;;;5072730;28;20205;-70
2024/02/02 11:40:59;;;;;;;9.67;4.83;;;11.60;99.90;;;;;;5072229;28;20218;-71
2024/02/02 11:43:27;;;;;;;6.73;4.57;;;11.60;99.90;;;;;;5072557;28;20186;-70
2024/02/02 11:45:55;;;;;;;13.00;5.03;;;11.50;99.90;;;;;;5072582;28;20261;-71
2024/02/02 11:48:43;;;;;;;8.07;4.97;;;11.50;99.90;;;;;;5072622;28;20184;-71
2024/02/02 11:51:10;;;;;;;15.37;5.83;;;11.40;99.90;;;;;;5076105;28;20197;-70
2024/02/02 11:53:59;;;;;;;13.60;5.43;;;11.40;99.90;;;;;;5092742;28;20216;-70
2024/02/02 11:56:33;;;;;;;7.37;4.50;;;11.30;99.90;;;;;;5092553;28;20223;-70
2024/02/02 11:59:06;;;;;;;8.43;4.80;;;11.40;99.90;;;;;;5103031;28;20208;-70
2024/02/02 12:01:52;;;;;;;10.17;4.80;;;11.30;99.90;;;;;;5112974;28;20193;-71
2024/02/02 12:04:36;;;;;;;11.27;5.50;;;11.30;99.90;;;;;;5109614;28;20206;-71
2024/02/02 12:07:36;;;;;;;14.60;5.60;;;11.30;99.90;;;;;;5091145;28;20322;-71
2024/02/02 12:10:03;;;;;;;9.80;5.00;;;11.30;99.90;;;;;;5091317;28;20170;-71
2024/02/02 12:12:50;;;;;;;9.37;5.53;;;11.40;99.90;;;;;;5090669;28;20196;-71
2024/02/02 12:15:16;;;;;;;9.87;5.43;;;11.40;99.90;;;;;;5092118;28;20226;-71
2024/02/02 12:17:42;;;;;;;13.77;5.17;;;11.50;99.90;;;;;;5092278;28;20178;-71
2024/02/02 12:20:10;;;;;;;10.13;5.63;;;11.70;99.90;;;;;;5092230;28;20213;-71
2024/02/02 12:22:37;;;;;;;9.60;5.03;;;11.80;99.90;;;;;;5091888;28;20638;-71
2024/02/02 12:25:09;;;;;;;7.20;4.70;;;11.80;99.90;;;;;;5091731;28;20208;-72
2024/02/02 12:27:38;;;;;;;7.00;4.97;;;11.80;99.90;;;;;;5092177;28;20177;-71
2024/02/02 12:30:07;;;;;;;11.50;6.03;;;12.00;99.90;;;;;;5091593;28;20545;-70
2024/02/02 12:32:33;;;;;;;12.53;5.50;;;12.00;99.90;;;;;;5091562;28;20193;-72
2024/02/02 12:34:59;;;;;;;7.53;5.07;;;11.90;99.90;;;;;;5091756;28;20201;-72
2024/02/02 12:37:24;;;;;;;8.93;4.77;;;12.00;99.90;;;;;;5092032;28;20201;-70
2024/02/02 12:39:52;;;;;;;10.67;5.40;;;11.90;99.90;;;;;;5091465;28;20196;-71
2024/02/02 12:42:21;;;;;;;7.50;5.00;;;11.70;99.90;;;;;;5091674;28;20170;-71
2024/02/02 12:44:50;;;;;;;13.40;4.90;;;11.60;99.90;;;;;;5091232;28;20666;-71
2024/02/02 12:47:23;;;;;;;13.07;5.63;;;11.70;99.90;;;;;;5090556;28;20177;-71
2024/02/02 12:49:48;;;;;;;10.10;5.23;;;11.80;99.90;;;;;;5091244;28;20177;-71
2024/02/02 12:52:14;;;;;;;17.60;6.73;;;11.80;99.90;;;;;;5091692;28;20642;-72
2024/02/02 12:54:40;;;;;;;12.53;5.27;;;11.90;99.90;;;;;;5091427;28;20213;-71
2024/02/02 12:57:07;;;;;;;9.80;5.57;;;12.10;99.90;;;;;;5091829;28;20519;-71
2024/02/02 12:59:33;;;;;;;10.53;4.90;;;12.50;99.90;;;;;;5089704;28;20250;-71
2024/02/02 13:01:59;;;;;;;7.63;4.27;;;12.80;99.90;;;;;;5091693;28;20181;-71